Time;durP1;ratioP1;P1;durP2;ratioP2;P2;SDS_P1;SDS_P2;PMS_P1;PMS_P2;Temp;Humidity;BMP_temperature;BMP_pressure;BME280_temperature;BME280_humidity;BME280_pressure;Samples;Min_cycle;Max_cycle;Signal;HPM_P1;HPM_P2
2023/07/16 00:01:59;;;;;;;8.00;6.40;;;;;;;-145.63;55.52;39002.72;5005281;28;20038;-65
2023/07/16 00:04:24;;;;;;;6.70;6.00;;;;;;;-145.63;55.41;38973.41;5005594;28;20080;-66
2023/07/16 00:06:50;;;;;;;7.03;6.05;;;;;;;-145.63;55.45;39012.50;5005123;28;20030;-66
2023/07/16 00:09:15;;;;;;;8.65;7.50;;;;;;;-145.63;55.48;39002.72;5022966;28;20041;-65
2023/07/16 00:11:41;;;;;;;6.45;5.63;;;;;;;-145.63;55.86;39020.34;5022756;28;20029;-66
2023/07/16 00:14:07;;;;;;;7.95;6.15;;;;;;;-145.63;55.79;38951.88;5005734;28;20053;-65
2023/07/16 00:16:33;;;;;;;9.57;5.82;;;;;;;-145.63;55.81;39004.69;5022253;28;20060;-66
2023/07/16 00:18:58;;;;;;;7.05;6.35;;;;;;;-145.63;56.01;38975.34;5022902;28;20025;-66
2023/07/16 00:21:24;;;;;;;6.70;6.03;;;;;;;-145.63;56.13;39010.56;5022747;28;20032;-65
2023/07/16 00:23:50;;;;;;;10.20;7.30;;;;;;;-145.63;56.12;39012.50;5022941;28;20030;-66
2023/07/16 00:26:16;;;;;;;7.70;6.75;;;;;;;-145.63;56.12;38989.03;5022246;28;20064;-66
2023/07/16 00:28:41;;;;;;;10.65;6.75;;;;;;;-145.63;56.45;39010.56;5022459;28;20029;-65
2023/07/16 00:31:07;;;;;;;7.20;6.53;;;;;;;-145.63;56.55;38828.69;5022141;28;20030;-66
2023/07/16 00:33:35;;;;;;;7.10;5.90;;;;;;;-145.63;56.41;38985.13;5022602;28;20026;-66
2023/07/16 00:36:01;;;;;;;6.53;5.75;;;;;;;-145.63;56.17;39018.38;5007166;28;20207;-65
2023/07/16 00:38:27;;;;;;;9.40;7.15;;;;;;;-145.63;56.43;39000.78;5026809;28;20326;-66
2023/07/16 00:40:52;;;;;;;11.10;7.30;;;;;;;-145.63;56.84;39002.72;5026465;28;20257;-66
2023/07/16 00:43:18;;;;;;;8.50;7.20;;;;;;;-145.63;56.63;39024.25;5008992;28;20041;-66
2023/07/16 00:45:46;;;;;;;7.93;6.28;;;;;;;-145.63;56.39;39030.13;5026299;28;20022;-66
2023/07/16 00:48:12;;;;;;;11.00;6.25;;;;;;;-145.63;56.30;39000.78;5026724;28;20029;-66
2023/07/16 00:50:39;;;;;;;8.15;6.15;;;;;;;-145.63;56.54;39018.38;5026141;28;20123;-65
2023/07/16 00:53:14;;;;;;;6.55;5.70;;;;;;;-145.63;56.48;39002.72;5026164;28;20028;-66
2023/07/16 00:55:39;;;;;;;6.97;5.60;;;;;;;-145.63;56.70;39034.03;5009654;28;20081;-66
2023/07/16 00:58:06;;;;;;;9.30;7.65;;;;;;;-145.63;56.34;38809.13;5026355;28;20038;-65
2023/07/16 01:00:33;;;;;;;6.05;5.55;;;;;;;-145.63;56.21;38998.81;5025849;28;20034;-66
2023/07/16 01:03:04;;;;;;;8.55;7.68;;;;;;;-145.63;56.36;38961.66;5026373;28;20037;-65
2023/07/16 01:05:38;;;;;;;6.22;5.63;;;;;;;-145.63;56.55;38992.97;5026019;28;20076;-65
2023/07/16 01:08:08;;;;;;;8.63;5.68;;;;;;;-145.63;56.44;39016.44;5026695;28;20022;-66
2023/07/16 01:10:34;;;;;;;7.40;5.22;;;;;;;-145.63;56.76;39026.19;4984349;28;20111;-65
2023/07/16 01:13:00;;;;;;;6.63;5.93;;;;;;;-145.63;56.76;39061.41;5026061;28;20116;-66
2023/07/16 01:15:26;;;;;;;7.85;5.43;;;;;;;-145.63;56.93;39041.84;5008347;28;20041;-66
2023/07/16 01:17:51;;;;;;;6.28;5.55;;;;;;;-145.63;56.91;38961.66;5026240;28;20042;-66
2023/07/16 01:20:17;;;;;;;6.25;5.38;;;;;;;-145.63;56.86;39034.03;5025791;28;20245;-65
2023/07/16 01:23:06;;;;;;;7.60;6.32;;;;;;;-145.63;56.93;39043.81;5025632;28;20022;-66
2023/07/16 01:25:46;;;;;;;8.55;5.57;;;;;;;-145.63;57.09;39000.78;5008088;28;20022;-66
2023/07/16 01:28:50;;;;;;;5.95;5.32;;;;;;;-145.63;56.62;39051.63;5025979;28;20037;-66
2023/07/16 01:31:17;;;;;;;7.75;5.47;;;;;;;-145.63;57.18;39028.16;4959871;28;20046;-64
2023/07/16 01:33:44;;;;;;;9.68;5.18;;;;;;;-145.63;56.92;39055.53;5025728;28;20057;-66
2023/07/16 01:36:10;;;;;;;5.78;5.28;;;;;;;-145.63;56.96;39024.25;5025303;28;20109;-66
2023/07/16 01:38:36;;;;;;;5.95;5.25;;;;;;;-145.63;56.84;39012.50;5025302;28;20030;-67
2023/07/16 01:41:02;;;;;;;5.85;5.30;;;;;;;-145.63;56.84;39034.03;5025404;28;20041;-66
2023/07/16 01:43:28;;;;;;;6.05;5.32;;;;;;;-145.63;57.14;39053.59;5025453;28;20029;-66
2023/07/16 01:45:54;;;;;;;6.50;5.57;;;;;;;-145.63;57.16;39055.53;5024780;28;20029;-66
2023/07/16 01:48:38;;;;;;;6.43;5.65;;;;;;;-145.63;56.80;39020.34;5007939;28;20034;-66
2023/07/16 01:51:04;;;;;;;5.68;5.18;;;;;;;-145.63;56.82;39059.44;5025099;28;20034;-66
2023/07/16 01:53:31;;;;;;;6.30;5.00;;;;;;;-145.63;56.82;39065.31;5004901;28;20203;-66
2023/07/16 01:55:57;;;;;;;5.95;5.35;;;;;;;-145.63;56.55;39028.16;5011084;28;20033;-65
2023/07/16 01:58:23;;;;;;;8.50;5.57;;;;;;;-145.63;57.12;39045.75;5025083;28;20030;-66
2023/07/16 02:00:50;;;;;;;8.80;5.25;;;;;;;-145.63;57.22;39035.97;5025000;28;20040;-65
2023/07/16 02:03:15;;;;;;;5.45;4.95;;;;;;;-145.63;57.09;39008.59;5025225;28;20080;-65
2023/07/16 02:05:41;;;;;;;8.98;5.32;;;;;;;-145.63;57.05;39032.06;5024871;28;20033;-65
2023/07/16 02:08:07;;;;;;;7.70;5.35;;;;;;;-145.63;56.76;39004.69;5007708;28;20026;-65
2023/07/16 02:10:33;;;;;;;7.93;4.90;;;;;;;-145.63;56.82;39077.06;5024720;28;20025;-66
2023/07/16 02:12:58;;;;;;;6.05;5.20;;;;;;;-145.63;57.10;39024.25;5007378;28;20054;-66
2023/07/16 02:15:24;;;;;;;6.65;5.55;;;;;;;-145.63;56.63;39032.06;5024598;28;20050;-67
2023/07/16 02:17:50;;;;;;;7.28;5.07;;;;;;;-145.63;56.61;39032.06;5024961;28;20026;-65
2023/07/16 02:20:16;;;;;;;5.90;5.30;;;;;;;-145.63;56.91;39024.25;5025164;28;20030;-66
2023/07/16 02:22:41;;;;;;;5.28;4.68;;;;;;;-145.63;56.84;39026.19;5024046;28;20038;-65
2023/07/16 02:25:07;;;;;;;6.18;5.25;;;;;;;-145.63;56.55;39053.59;5024855;28;20057;-66
2023/07/16 02:27:33;;;;;;;6.32;4.70;;;;;;;-145.63;56.56;39000.78;5024305;28;20036;-65
2023/07/16 02:29:58;;;;;;;6.00;5.40;;;;;;;-145.63;57.10;39020.34;5007096;28;20037;-65
2023/07/16 02:32:24;;;;;;;6.72;5.70;;;;;;;-145.63;57.10;39020.34;5024051;28;20132;-66
2023/07/16 02:34:49;;;;;;;6.03;5.20;;;;;;;-145.63;56.88;38998.81;5024686;28;20042;-66
2023/07/16 02:37:15;;;;;;;7.18;5.20;;;;;;;-145.63;57.03;39024.25;5024379;28;20061;-66
2023/07/16 02:39:42;;;;;;;6.18;5.00;;;;;;;-145.63;56.63;39024.25;5024645;28;20036;-66
2023/07/16 02:42:08;;;;;;;6.32;5.65;;;;;;;-145.63;56.66;39004.69;5024076;28;20037;-66
2023/07/16 02:44:38;;;;;;;7.72;5.25;;;;;;;-145.63;56.72;39028.16;5024335;28;20026;-67
2023/07/16 02:47:04;;;;;;;6.55;5.18;;;;;;;-145.63;56.54;38994.91;5024138;28;20097;-66
2023/07/16 02:49:29;;;;;;;6.05;5.40;;;;;;;-145.63;56.97;39016.44;5024465;28;20025;-67
2023/07/16 02:51:55;;;;;;;6.00;5.40;;;;;;;-145.63;56.60;39039.88;5024068;28;20053;-66
2023/07/16 02:54:20;;;;;;;7.57;5.60;;;;;;;-145.63;57.01;39016.44;5015083;28;20022;-66
2023/07/16 02:56:47;;;;;;;9.70;5.93;;;;;;;-145.63;56.96;39020.34;4998881;28;20025;-67
2023/07/16 02:59:13;;;;;;;8.88;5.85;;;;;;;-145.63;57.01;39006.66;5005842;28;20030;-66
2023/07/16 03:01:38;;;;;;;7.57;6.35;;;;;;;-145.63;56.88;39037.94;5023867;28;20368;-66
2023/07/16 03:04:04;;;;;;;6.88;6.05;;;;;;;-145.63;57.14;39010.56;5024066;28;20306;-65
2023/07/16 03:06:29;;;;;;;7.28;6.40;;;;;;;-145.63;57.11;39030.13;5023474;28;20094;-66
2023/07/16 03:08:55;;;;;;;7.20;5.70;;;;;;;-145.63;57.23;39008.59;5023490;28;20048;-66
2023/07/16 03:11:20;;;;;;;8.43;6.78;;;;;;;-145.63;57.48;39032.06;5023459;28;20215;-64
2023/07/16 03:13:46;;;;;;;6.35;5.70;;;;;;;-145.63;57.27;39028.16;5024252;28;20348;-65
2023/07/16 03:16:11;;;;;;;6.38;5.78;;;;;;;-145.63;57.21;38975.34;5023475;28;20036;-66
2023/07/16 03:18:37;;;;;;;7.97;5.65;;;;;;;-145.63;57.10;39024.25;5023622;28;20025;-66
2023/07/16 03:21:03;;;;;;;6.60;5.90;;;;;;;-145.63;57.03;39026.19;5023507;28;20144;-66
2023/07/16 03:23:28;;;;;;;9.60;6.10;;;;;;;-145.63;57.09;39010.56;5006242;28;20036;-66
2023/07/16 03:25:54;;;;;;;7.47;5.93;;;;;;;-145.63;57.11;39016.44;5005858;28;20018;-66
2023/07/16 03:28:20;;;;;;;7.75;6.15;;;;;;;-145.63;56.68;38991.00;5005968;28;20033;-66
2023/07/16 03:30:49;;;;;;;6.50;5.85;;;;;;;-145.63;56.64;38992.97;5023410;28;20041;-67
2023/07/16 03:33:15;;;;;;;7.30;6.22;;;;;;;-145.63;56.90;39006.66;5023627;28;20029;-67
2023/07/16 03:35:45;;;;;;;6.90;6.20;;;;;;;-145.63;56.53;39004.69;5023466;28;20099;-66
2023/07/16 03:38:12;;;;;;;8.65;6.45;;;;;;;-145.63;56.70;38873.66;5023695;28;20319;-66
2023/07/16 03:40:38;;;;;;;10.43;7.00;;;;;;;-145.63;56.84;39010.56;5022401;28;20021;-65
2023/07/16 03:43:04;;;;;;;7.65;6.35;;;;;;;-145.63;56.42;39000.78;5023043;28;20362;-66
2023/07/16 03:45:29;;;;;;;6.88;6.07;;;;;;;-145.63;56.46;39000.78;5022513;28;20018;-66
2023/07/16 03:47:55;;;;;;;7.00;6.30;;;;;;;-145.63;56.49;38998.81;5023439;28;20037;-67
2023/07/16 03:50:21;;;;;;;7.53;6.18;;;;;;;-145.63;56.26;38981.22;5005475;28;20030;-67
2023/07/16 03:52:47;;;;;;;7.35;6.15;;;;;;;-145.63;56.40;39024.25;5023395;28;20029;-64
2023/07/16 03:55:13;;;;;;;6.65;6.05;;;;;;;-145.63;56.26;39006.66;5021379;28;20101;-67
2023/07/16 03:57:38;;;;;;;7.75;6.13;;;;;;;-145.63;56.84;39012.50;5022988;28;20026;-66
2023/07/16 04:00:09;;;;;;;6.55;5.82;;;;;;;-145.63;56.49;38975.34;5023577;28;20026;-65
2023/07/16 04:02:35;;;;;;;7.53;5.78;;;;;;;-145.63;56.57;38983.19;5022715;28;20033;-64
2023/07/16 04:05:01;;;;;;;7.05;6.32;;;;;;;-145.63;56.93;38998.81;5023399;28;20034;-66
2023/07/16 04:07:29;;;;;;;6.53;5.93;;;;;;;-145.63;56.58;38971.44;5023064;28;20063;-66
2023/07/16 04:09:54;;;;;;;5.90;5.40;;;;;;;-145.63;56.07;38975.34;5005529;28;20026;-65
2023/07/16 04:12:20;;;;;;;7.35;5.85;;;;;;;-145.63;56.63;39006.66;5022602;28;20025;-65
2023/07/16 04:14:47;;;;;;;6.28;5.75;;;;;;;-145.63;56.60;39002.72;5022849;28;20104;-65
2023/07/16 04:17:12;;;;;;;8.35;6.38;;;;;;;-145.63;56.59;38973.41;5024085;28;20030;-66
2023/07/16 04:19:38;;;;;;;6.70;5.60;;;;;;;-145.63;56.74;38969.50;5022868;28;20057;-66
2023/07/16 04:22:04;;;;;;;7.47;6.05;;;;;;;-145.63;56.27;38946.03;5022754;28;20057;-65
2023/07/16 04:24:30;;;;;;;11.20;5.97;;;;;;;-145.63;56.26;38957.75;5022895;28;20097;-65
2023/07/16 04:26:58;;;;;;;6.68;5.90;;;;;;;-145.63;56.26;38953.84;5022505;28;20029;-65
2023/07/16 04:29:23;;;;;;;7.20;5.38;;;;;;;-145.63;56.18;38953.84;5022143;28;20318;-66
2023/07/16 04:31:49;;;;;;;6.25;5.65;;;;;;;-145.63;56.05;38961.66;5022903;28;20060;-66
2023/07/16 04:34:15;;;;;;;9.50;5.68;;;;;;;-145.63;56.41;38975.34;5022879;28;20310;-66
2023/07/16 04:36:44;;;;;;;9.93;6.43;;;;;;;-145.63;56.23;38955.81;5004640;28;20034;-65
2023/07/16 04:39:10;;;;;;;6.50;5.85;;;;;;;-145.63;56.12;38946.03;5022765;28;20030;-66
2023/07/16 04:41:35;;;;;;;7.93;5.85;;;;;;;-145.63;55.80;38932.34;5022453;28;20302;-65
2023/07/16 04:44:01;;;;;;;8.80;6.43;;;;;;;-145.63;55.96;38965.56;5005270;28;20033;-65
2023/07/16 04:46:26;;;;;;;8.05;6.03;;;;;;;-145.63;56.02;38957.75;5021864;28;20061;-66
2023/07/16 04:48:53;;;;;;;7.38;5.45;;;;;;;-145.63;56.14;38942.13;5022328;28;20133;-66
2023/07/16 04:51:18;;;;;;;13.60;7.28;;;;;;;-145.63;56.22;38969.50;5022496;28;20225;-66
2023/07/16 04:53:44;;;;;;;8.70;6.45;;;;;;;-145.63;56.10;38961.66;5022907;28;20030;-65
2023/07/16 04:56:14;;;;;;;9.43;6.32;;;;;;;-145.63;56.01;38947.97;5005057;28;20391;-66
2023/07/16 04:58:40;;;;;;;6.85;6.18;;;;;;;-145.63;56.11;38949.94;5022478;28;20037;-66
2023/07/16 05:01:05;;;;;;;10.02;6.80;;;;;;;-145.63;56.07;38951.88;5022409;28;20199;-66
2023/07/16 05:03:31;;;;;;;10.68;7.10;;;;;;;-145.63;56.36;38961.66;5022608;28;20033;-66
2023/07/16 05:05:56;;;;;;;10.95;7.47;;;;;;;-145.63;55.95;38971.44;5022226;28;20021;-65
2023/07/16 05:08:22;;;;;;;7.97;7.18;;;;;;;-145.63;55.93;38914.72;4988587;28;20034;-65
2023/07/16 05:10:47;;;;;;;11.77;7.45;;;;;;;-145.63;55.95;38916.69;5022278;28;20025;-67
2023/07/16 05:13:15;;;;;;;9.13;7.30;;;;;;;-145.63;55.75;38926.47;5004790;28;20353;-66
2023/07/16 05:15:40;;;;;;;6.97;6.35;;;;;;;-145.63;55.88;38940.16;5022143;28;20061;-65
2023/07/16 05:18:06;;;;;;;9.73;7.30;;;;;;;-145.63;55.88;38949.94;5022562;28;20025;-65
2023/07/16 05:20:32;;;;;;;9.45;7.57;;;;;;;-145.63;56.05;38940.16;5022160;28;20319;-66
2023/07/16 05:22:57;;;;;;;9.23;6.90;;;;;;;-145.63;55.88;38906.91;5025603;28;20026;-66
2023/07/16 05:25:23;;;;;;;9.07;7.38;;;;;;;-145.63;55.86;38904.97;5007755;28;20061;-66
2023/07/16 05:27:48;;;;;;;11.02;8.75;;;;;;;-145.63;55.55;38914.72;5025781;28;20052;-64
2023/07/16 05:30:14;;;;;;;8.00;7.20;;;;;;;-145.63;55.57;38934.28;5025897;28;20109;-64
2023/07/16 05:32:40;;;;;;;8.73;7.13;;;;;;;-145.63;55.59;38904.97;5019395;28;20076;-66
2023/07/16 05:35:06;;;;;;;9.68;7.63;;;;;;;-145.63;55.74;38922.56;5011397;28;20045;-66
2023/07/16 05:37:32;;;;;;;11.90;8.40;;;;;;;-145.63;55.45;38922.56;5017094;28;20021;-66
2023/07/16 05:39:57;;;;;;;10.13;7.93;;;;;;;-145.63;55.72;38924.50;5020026;28;20033;-66
2023/07/16 05:42:23;;;;;;;9.82;8.18;;;;;;;-145.63;55.92;38906.91;5017556;28;20044;-66
2023/07/16 05:44:48;;;;;;;8.63;7.75;;;;;;;-145.63;55.73;38908.88;5017638;28;20034;-66
2023/07/16 05:47:14;;;;;;;9.93;7.78;;;;;;;-145.63;55.45;38901.03;5018426;28;20354;-66
2023/07/16 05:49:39;;;;;;;9.00;7.75;;;;;;;-145.63;55.02;38908.88;5025090;28;20034;-66
2023/07/16 05:52:05;;;;;;;10.52;8.70;;;;;;;-145.63;55.34;38922.56;5022257;28;20192;-65
2023/07/16 05:54:31;;;;;;;10.02;8.75;;;;;;;-145.63;55.44;38934.28;5018897;28;20038;-65
2023/07/16 05:56:57;;;;;;;9.90;8.07;;;;;;;-145.63;55.49;38865.84;5024792;28;20330;-66
2023/07/16 05:59:23;;;;;;;10.18;7.22;;;;;;;-145.63;55.50;38865.84;5025166;28;20045;-65
2023/07/16 06:01:49;;;;;;;9.20;7.80;;;;;;;-145.63;55.01;38873.66;5025241;28;20030;-65
2023/07/16 06:04:14;;;;;;;9.90;8.07;;;;;;;-145.63;54.90;38838.47;5025318;28;20033;-66
2023/07/16 06:06:40;;;;;;;7.50;6.75;;;;;;;-145.63;54.70;38771.97;5024699;28;20026;-66
2023/07/16 06:09:05;;;;;;;7.63;6.90;;;;;;;-145.63;54.67;38824.78;5025117;28;20033;-66
2023/07/16 06:11:31;;;;;;;10.40;8.32;;;;;;;-145.63;54.16;38836.50;5007210;28;20266;-66
2023/07/16 06:13:57;;;;;;;9.93;8.68;;;;;;;-145.63;54.68;38883.44;5024961;28;20057;-65
2023/07/16 06:16:22;;;;;;;11.02;7.82;;;;;;;-145.63;54.22;38813.03;5023699;28;20036;-65
2023/07/16 06:18:48;;;;;;;11.77;8.32;;;;;;;-145.63;54.25;38785.66;5024890;28;20045;-68
2023/07/16 06:21:13;;;;;;;8.00;7.07;;;;;;;-145.63;54.38;38856.06;5024501;28;20033;-67
2023/07/16 06:23:40;;;;;;;7.78;6.95;;;;;;;-145.63;54.07;38858.03;5024844;28;20045;-66
2023/07/16 06:26:06;;;;;;;7.90;6.70;;;;;;;-145.63;54.09;38834.56;5024246;28;20025;-66
2023/07/16 06:28:32;;;;;;;7.95;7.22;;;;;;;-145.63;53.93;38795.44;5024324;28;20033;-66
2023/07/16 06:30:57;;;;;;;8.88;7.63;;;;;;;-145.63;54.01;38793.50;5024445;28;20048;-67
2023/07/16 06:33:25;;;;;;;7.50;6.72;;;;;;;-145.63;53.90;38781.75;5024765;28;20033;-65
2023/07/16 06:35:51;;;;;;;8.00;6.15;;;;;;;-145.63;53.78;38771.97;5024221;28;20109;-67
2023/07/16 06:38:16;;;;;;;6.80;6.10;;;;;;;-145.63;53.40;38746.56;4991150;28;20037;-67
2023/07/16 06:40:49;;;;;;;6.35;5.70;;;;;;;-145.63;52.98;38758.28;5024030;28;20064;-67
2023/07/16 06:43:15;;;;;;;6.53;5.90;;;;;;;-145.63;52.52;38754.38;5024550;28;20036;-66
2023/07/16 06:45:41;;;;;;;8.35;6.40;;;;;;;-145.63;52.69;38760.25;5024033;28;20730;-66
2023/07/16 06:48:07;;;;;;;7.50;6.18;;;;;;;-145.63;52.48;38732.88;5024319;28;20033;-66
2023/07/16 06:50:32;;;;;;;7.18;6.45;;;;;;;-145.63;53.23;38768.06;5024045;28;20037;-67
2023/07/16 06:52:58;;;;;;;7.22;6.53;;;;;;;-145.63;52.82;38744.59;5024258;28;20040;-66
2023/07/16 06:55:23;;;;;;;6.68;6.07;;;;;;;-145.63;52.42;38758.28;5006440;28;20032;-66
2023/07/16 06:57:49;;;;;;;7.82;6.10;;;;;;;-145.63;52.19;38766.13;5024116;28;20034;-65
2023/07/16 07:00:15;;;;;;;7.65;6.32;;;;;;;-145.63;52.59;38727.00;5024344;28;20033;-66
2023/07/16 07:02:41;;;;;;;10.38;6.45;;;;;;;-145.63;52.58;38740.69;5006288;28;20076;-67
2023/07/16 07:05:06;;;;;;;8.05;6.40;;;;;;;-145.63;52.33;38754.38;5023715;28;20026;-67
2023/07/16 07:07:32;;;;;;;8.05;5.82;;;;;;;-145.63;52.15;38754.38;5023478;28;20089;-66
2023/07/16 07:09:57;;;;;;;7.45;6.25;;;;;;;-145.63;52.09;38744.59;5023980;28;20252;-66
2023/07/16 07:12:23;;;;;;;9.25;5.85;;;;;;;-145.63;51.68;38701.59;5020574;28;20098;-67
2023/07/16 07:14:49;;;;;;;6.13;5.53;;;;;;;-145.63;51.31;38705.50;5023875;28;20266;-67
2023/07/16 07:17:14;;;;;;;6.32;5.72;;;;;;;-145.63;51.04;38664.44;5023554;28;20090;-66
2023/07/16 07:19:41;;;;;;;9.32;5.95;;;;;;;-145.63;50.84;38728.97;5023802;28;20069;-68
2023/07/16 07:22:06;;;;;;;6.18;5.45;;;;;;;-145.63;50.97;38725.06;5023419;28;20096;-66
2023/07/16 07:24:32;;;;;;;8.45;6.18;;;;;;;-145.63;50.90;38715.28;5023608;28;20029;-65
2023/07/16 07:26:58;;;;;;;9.80;6.00;;;;;;;-145.63;50.81;38719.19;5022721;28;20311;-67
2023/07/16 07:29:23;;;;;;;6.57;5.78;;;;;;;-145.63;51.08;38717.22;5023425;28;20029;-66
2023/07/16 07:31:50;;;;;;;10.18;6.20;;;;;;;-145.63;50.96;38752.44;5005313;28;20101;-66
2023/07/16 07:34:15;;;;;;;6.65;5.53;;;;;;;-145.63;50.84;38754.38;5023317;28;20045;-66
2023/07/16 07:36:41;;;;;;;7.63;5.50;;;;;;;-145.63;51.16;38725.06;5023137;28;20045;-65
2023/07/16 07:39:07;;;;;;;5.88;5.38;;;;;;;-145.63;50.69;38721.13;5023499;28;20049;-66
2023/07/16 07:41:33;;;;;;;6.18;5.57;;;;;;;-145.63;50.32;38719.19;5023186;28;20042;-66
2023/07/16 07:43:59;;;;;;;8.25;5.57;;;;;;;-145.63;50.54;38658.56;5023136;28;20022;-66
2023/07/16 07:46:24;;;;;;;7.00;6.28;;;;;;;-145.63;51.04;38723.09;5022780;28;20025;-66
2023/07/16 07:48:50;;;;;;;7.68;5.82;;;;;;;-145.63;51.17;38738.75;5022979;28;20045;-66
2023/07/16 07:51:15;;;;;;;7.03;6.07;;;;;;;-145.63;51.54;38728.97;5023295;28;20030;-65
2023/07/16 07:53:41;;;;;;;6.60;5.65;;;;;;;-145.63;51.84;38762.22;5005684;28;20025;-66
2023/07/16 07:56:07;;;;;;;6.63;5.70;;;;;;;-145.63;51.18;38762.22;5023365;28;20195;-66
2023/07/16 07:58:33;;;;;;;8.68;6.50;;;;;;;-145.63;51.69;38766.13;5023072;28;20037;-67
2023/07/16 08:01:07;;;;;;;7.72;5.57;;;;;;;-145.63;51.60;38752.44;5022959;28;20030;-67
2023/07/16 08:03:34;;;;;;;6.72;6.00;;;;;;;-145.63;51.64;38685.94;5022998;28;20117;-67
2023/07/16 08:06:00;;;;;;;7.78;5.88;;;;;;;-145.63;51.25;38730.91;5022582;28;20195;-65
2023/07/16 08:08:25;;;;;;;7.25;6.43;;;;;;;-145.63;51.27;38648.78;5022500;28;20074;-66
2023/07/16 08:10:51;;;;;;;6.35;5.75;;;;;;;-145.63;50.85;38678.13;5022865;28;20026;-66
2023/07/16 08:13:17;;;;;;;7.47;5.65;;;;;;;-145.63;51.00;38668.34;5022621;28;20116;-66
2023/07/16 08:15:42;;;;;;;7.18;6.13;;;;;;;-145.63;50.55;38640.97;5022947;28;20026;-66
2023/07/16 08:18:08;;;;;;;6.55;5.93;;;;;;;-145.63;50.63;38629.22;5023102;28;20034;-66
2023/07/16 08:20:36;;;;;;;7.22;6.25;;;;;;;-145.63;50.65;38621.41;5022766;28;20026;-66
2023/07/16 08:23:01;;;;;;;7.20;5.65;;;;;;;-145.63;50.16;38629.22;5022996;28;20033;-68
2023/07/16 08:25:27;;;;;;;7.38;5.80;;;;;;;-145.63;50.45;38613.59;5005277;28;20318;-66
2023/07/16 08:27:52;;;;;;;6.55;5.95;;;;;;;-145.63;50.26;38633.16;5005557;28;20044;-65
2023/07/16 08:30:18;;;;;;;6.20;5.63;;;;;;;-145.63;50.11;38582.31;5023100;28;20037;-65
2023/07/16 08:32:43;;;;;;;6.15;5.55;;;;;;;-145.63;48.84;38601.84;5022586;28;20038;-66
2023/07/16 08:35:15;;;;;;;6.15;5.55;;;;;;;-145.63;48.20;38584.25;5023214;28;20034;-65
2023/07/16 08:37:41;;;;;;;5.68;5.13;;;;;;;-145.63;47.99;38560.78;5022605;28;20549;-66
2023/07/16 08:40:09;;;;;;;6.20;5.38;;;;;;;-145.63;48.14;38531.47;5022974;28;20038;-67
2023/07/16 08:42:37;;;;;;;6.90;6.20;;;;;;;-145.63;48.06;38494.31;5022240;28;20030;-67
2023/07/16 08:45:06;;;;;;;5.13;4.72;;;;;;;-145.63;47.95;38525.59;5022857;28;20026;-67
2023/07/16 08:47:32;;;;;;;5.65;5.13;;;;;;;-145.63;47.21;38521.69;5022541;28;20081;-67
2023/07/16 08:49:57;;;;;;;7.93;5.60;;;;;;;-145.63;46.88;38425.88;5022815;28;20036;-67
2023/07/16 08:52:23;;;;;;;6.35;5.05;;;;;;;-145.63;47.55;38472.81;5022481;28;20262;-67
2023/07/16 08:54:49;;;;;;;5.93;4.97;;;;;;;-145.63;46.30;38202.97;5005143;28;20356;-66
2023/07/16 08:57:15;;;;;;;6.32;5.72;;;;;;;-145.63;46.05;38464.97;5024583;28;20034;-66
2023/07/16 08:59:42;;;;;;;6.82;5.57;;;;;;;-145.63;46.04;38488.44;5008601;28;20245;-65
2023/07/16 09:02:08;;;;;;;8.00;6.00;;;;;;;-145.63;46.64;38408.28;5008464;28;20038;-67
2023/07/16 09:04:33;;;;;;;5.78;5.28;;;;;;;-145.63;46.85;38506.03;5008522;28;20033;-65
2023/07/16 09:06:59;;;;;;;5.70;5.20;;;;;;;-145.63;46.14;38388.72;5025818;28;20348;-67
2023/07/16 09:09:25;;;;;;;5.43;4.97;;;;;;;-145.63;44.79;38404.38;5025644;28;20049;-65
2023/07/16 09:11:51;;;;;;;6.63;6.03;;;;;;;-145.63;45.51;38457.16;5008553;28;20053;-67
2023/07/16 09:14:20;;;;;;;6.57;5.97;;;;;;;-145.63;45.39;38468.91;5026222;28;20037;-66
2023/07/16 09:16:52;;;;;;;7.38;5.97;;;;;;;-145.63;45.22;38472.81;5008202;28;20302;-65
2023/07/16 09:19:18;;;;;;;6.60;5.00;;;;;;;-145.63;45.36;38494.31;5026080;28;20053;-66
2023/07/16 09:21:51;;;;;;;6.25;5.68;;;;;;;-145.63;44.86;38519.72;5025703;28;20040;-65
2023/07/16 09:24:19;;;;;;;5.50;5.00;;;;;;;-145.63;44.99;38476.72;5026123;28;20092;-66
2023/07/16 09:26:52;;;;;;;6.32;5.78;;;;;;;-145.63;44.93;38433.69;5025485;28;20022;-67
2023/07/16 09:29:18;;;;;;;6.88;6.18;;;;;;;-145.63;45.34;38435.66;5026077;28;20234;-64
2023/07/16 09:32:02;;;;;;;5.97;5.32;;;;;;;-145.63;44.22;38441.53;5025548;28;20021;-66
2023/07/16 09:34:28;;;;;;;5.13;4.18;;;;;;;-145.63;43.78;38398.50;5025765;28;20097;-66
2023/07/16 09:36:54;;;;;;;4.80;4.40;;;;;;;-145.63;44.65;38310.50;5025770;28;20093;-66
2023/07/16 09:39:20;;;;;;;4.63;4.15;;;;;;;-145.63;44.07;38318.34;5025535;28;20330;-67
2023/07/16 09:41:49;;;;;;;6.38;4.57;;;;;;;-145.63;43.63;38294.88;5025266;28;20030;-66
2023/07/16 09:44:16;;;;;;;5.07;4.68;;;;;;;-145.63;42.84;38259.69;5025867;28;20329;-67
2023/07/16 09:46:42;;;;;;;5.10;4.53;;;;;;;-145.63;43.51;38261.63;5025000;28;20037;-66
2023/07/16 09:49:08;;;;;;;6.47;5.28;;;;;;;-145.63;43.46;38236.22;5025406;28;20072;-65
2023/07/16 09:51:38;;;;;;;7.35;4.90;;;;;;;-145.63;42.38;38312.47;5025331;28;20021;-66
2023/07/16 09:54:05;;;;;;;5.82;5.00;;;;;;;-145.63;43.22;38312.47;5025398;28;20029;-67
2023/07/16 09:56:46;;;;;;;6.45;5.10;;;;;;;-145.63;43.57;38332.03;5007910;28;20030;-67
2023/07/16 09:59:17;;;;;;;7.07;4.93;;;;;;;-145.63;43.07;38337.88;5005818;28;20042;-66
2023/07/16 10:01:43;;;;;;;4.75;4.13;;;;;;;-145.63;42.10;38326.16;5021941;28;20045;-66
2023/07/16 10:04:14;;;;;;;5.25;4.45;;;;;;;-145.63;41.61;38234.25;5025682;28;20034;-66
2023/07/16 10:07:19;;;;;;;5.78;5.28;;;;;;;-145.63;40.23;38273.38;5024239;28;20064;-66
2023/07/16 10:09:56;;;;;;;5.20;3.75;;;;;;;-145.63;41.43;38283.16;5004268;28;20041;-66
2023/07/16 10:12:24;;;;;;;5.03;3.90;;;;;;;-145.63;40.91;38312.47;5024731;28;20041;-66
2023/07/16 10:15:02;;;;;;;4.55;4.00;;;;;;;-145.63;40.27;38324.19;5025169;28;20072;-67
2023/07/16 10:17:31;;;;;;;4.15;3.80;;;;;;;-145.63;40.77;38277.28;5025127;28;20473;-67
2023/07/16 10:20:15;;;;;;;5.10;3.85;;;;;;;-145.63;39.74;38279.22;5024512;28;20080;-66
2023/07/16 10:22:45;;;;;;;4.10;3.70;;;;;;;-145.63;40.79;38222.53;5024557;28;20491;-66
2023/07/16 10:25:17;;;;;;;5.53;4.05;;;;;;;-145.63;39.62;38183.44;5024870;28;20026;-67
2023/07/16 10:27:43;;;;;;;4.38;3.88;;;;;;;-145.63;39.83;38220.56;5024749;28;20026;-68
2023/07/16 10:30:08;;;;;;;4.20;3.80;;;;;;;-145.63;39.64;38234.25;5025039;28;20029;-65
2023/07/16 10:32:34;;;;;;;5.00;4.50;;;;;;;-145.63;40.09;38289.00;5024622;28;20100;-66
2023/07/16 10:35:00;;;;;;;4.80;4.32;;;;;;;-145.63;40.10;38257.72;5024621;28;20032;-66
2023/07/16 10:37:26;;;;;;;4.88;4.47;;;;;;;-145.63;40.11;38267.50;5024481;28;20194;-67
2023/07/16 10:39:55;;;;;;;6.95;5.05;;;;;;;-145.63;40.14;38273.38;5024853;28;20045;-66
2023/07/16 10:42:22;;;;;;;6.88;5.63;;;;;;;-145.63;41.20;38263.59;5004147;28;20036;-66
2023/07/16 10:44:52;;;;;;;6.80;5.18;;;;;;;-145.63;41.16;38277.28;5024431;28;20048;-67
2023/07/16 10:47:24;;;;;;;6.00;4.32;;;;;;;-145.63;40.72;38361.34;5024177;28;20091;-64
2023/07/16 10:49:54;;;;;;;6.43;4.60;;;;;;;-145.63;40.93;38261.63;5024586;28;20091;-66
2023/07/16 10:52:21;;;;;;;7.78;5.13;;;;;;;-145.63;41.58;38345.72;5024266;28;20232;-67
2023/07/16 10:54:48;;;;;;;4.80;4.30;;;;;;;-145.63;41.94;38283.16;5024181;28;20059;-66
2023/07/16 10:57:16;;;;;;;6.30;4.70;;;;;;;-145.63;41.57;38320.28;5023974;28;20315;-65
2023/07/16 10:59:43;;;;;;;6.38;4.65;;;;;;;-145.63;41.59;38277.28;5024349;28;20105;-66
2023/07/16 11:02:13;;;;;;;5.88;5.13;;;;;;;-145.63;41.74;38275.31;5024445;28;20029;-67
2023/07/16 11:04:40;;;;;;;5.47;4.68;;;;;;;-145.63;40.91;38267.50;5024147;28;20334;-67
2023/07/16 11:07:11;;;;;;;4.68;4.18;;;;;;;-145.63;40.68;38335.94;5023793;28;20026;-66
2023/07/16 11:09:55;;;;;;;5.70;4.63;;;;;;;-145.63;40.78;38261.63;5006463;28;20225;-66
2023/07/16 11:12:22;;;;;;;5.47;4.35;;;;;;;-145.63;40.71;38234.25;5023824;28;20044;-66
2023/07/16 11:14:50;;;;;;;6.32;4.45;;;;;;;-145.63;40.57;38181.47;5023961;28;20033;-67
2023/07/16 11:17:16;;;;;;;4.97;4.53;;;;;;;-145.63;39.46;38183.44;5023957;28;20040;-66